Time;durP1;ratioP1;P1;durP2;ratioP2;P2;SDS_P1;SDS_P2;PMS_P1;PMS_P2;Temp;Humidity;BMP_temperature;BMP_pressure;BME280_temperature;BME280_humidity;BME280_pressure;Samples;Min_cycle;Max_cycle;Signal;HPM_P1;HPM_P2
2023/07/04 00:01:41;;;;;;;6.00;1.40;;;;;;;-145.18;100.00;46638.91;5082709;28;20028;-61
2023/07/04 00:04:08;;;;;;;5.13;1.83;;;;;;;-145.18;100.00;46638.91;5072938;28;20040;-62
2023/07/04 00:06:36;;;;;;;7.10;1.87;;;;;;;-145.18;100.00;46676.03;5081225;28;20465;-62
2023/07/04 00:09:04;;;;;;;7.67;3.10;;;;;;;-145.18;100.00;46677.97;5089265;28;20063;-62
2023/07/04 00:11:31;;;;;;;5.97;1.70;;;;;;;-145.18;100.00;46676.03;5088731;28;20396;-61
2023/07/04 00:13:56;;;;;;;14.37;2.97;;;;;;;-145.18;100.00;46660.41;5089815;28;20111;-61
2023/07/04 00:16:22;;;;;;;14.93;3.83;;;;;;;-145.18;100.00;46660.41;5093004;28;20119;-62
2023/07/04 00:18:48;;;;;;;12.07;3.67;;;;;;;-145.18;100.00;46660.41;5091907;28;20024;-62
2023/07/04 00:21:17;;;;;;;10.43;3.13;;;;;;;-145.18;100.00;46660.41;5074053;28;20081;-61
2023/07/04 00:23:45;;;;;;;9.30;2.77;;;;;;;-145.18;100.00;46660.41;5076580;28;20431;-61
2023/07/04 00:26:12;;;;;;;13.63;2.73;;;;;;;-145.18;100.00;46660.41;5092112;28;20043;-61
2023/07/04 00:28:38;;;;;;;14.00;3.10;;;;;;;-145.18;100.00;46660.41;5077680;28;20089;-61
2023/07/04 00:31:04;;;;;;;20.07;3.50;;;;;;;-145.18;100.00;46660.41;5083191;28;20070;-61
2023/07/04 00:33:33;;;;;;;9.30;3.60;;;;;;;-145.18;100.00;46660.41;5091200;28;20027;-61
2023/07/04 00:36:04;;;;;;;18.63;3.73;;;;;;;-145.18;100.00;46660.41;5080838;28;20113;-61
2023/07/04 00:38:34;;;;;;;16.00;3.27;;;;;;;-145.18;100.00;46660.41;5091388;28;20020;-61
2023/07/04 00:41:03;;;;;;;12.87;3.77;;;;;;;-145.18;100.00;46660.41;5086301;28;20028;-61
2023/07/04 00:43:57;;;;;;;13.50;2.97;;;;;;;-145.18;100.00;46660.41;5085528;28;20027;-62
2023/07/04 00:46:37;;;;;;;11.47;2.57;;;;;;;-145.18;100.00;46660.41;5089310;28;20035;-61
2023/07/04 00:49:06;;;;;;;4.73;1.63;;;;;;;-145.18;100.00;46660.41;5087772;28;20499;-61
2023/07/04 00:51:34;;;;;;;6.37;1.70;;;;;;;-145.18;100.00;46633.06;5092020;28;20024;-61
2023/07/04 00:53:59;;;;;;;8.23;1.87;;;;;;;-145.18;100.00;46660.41;5075185;28;20121;-61
2023/07/04 00:56:28;;;;;;;7.03;1.83;;;;;;;-145.18;100.00;46660.41;5078215;28;20070;-61
2023/07/04 00:58:58;;;;;;;5.17;1.43;;;;;;;-145.18;100.00;46660.41;5076648;28;20024;-61
2023/07/04 01:01:23;;;;;;;4.60;1.43;;;;;;;-145.18;100.00;46660.41;5066548;28;20476;-61
2023/07/04 01:03:49;;;;;;;3.77;1.70;;;;;;;-145.18;100.00;46660.41;5078654;28;20111;-61
2023/07/04 01:06:39;;;;;;;6.07;2.07;;;;;;;-145.18;100.00;46660.41;5064959;28;20404;-61
2023/07/04 01:09:06;;;;;;;7.37;1.57;;;;;;;-145.18;100.00;46635.00;5084831;28;20040;-67
2023/07/04 01:11:42;;;;;;;7.50;1.60;;;;;;;-145.18;100.00;46660.41;5071217;28;20473;-67
2023/07/04 01:14:34;;;;;;;4.05;1.45;;;;;;;-145.18;100.00;46636.94;5072338;28;20161;-66
2023/07/04 01:17:00;;;;;;;3.60;1.20;;;;;;;-145.18;100.00;46635.00;5080524;28;20035;-67
2023/07/04 01:19:34;;;;;;;10.13;1.60;;;;;;;-145.18;100.00;46635.00;5092436;28;20383;-66
2023/07/04 01:22:27;;;;;;;3.20;1.57;;;;;;;-145.18;100.00;46635.00;5077172;28;20065;-66
2023/07/04 01:25:01;;;;;;;8.97;1.90;;;;;;;-145.18;100.00;46660.41;5061420;28;20043;-67
2023/07/04 01:27:28;;;;;;;5.37;1.60;;;;;;;-145.18;100.00;46660.41;5072190;28;20484;-67
2023/07/04 01:29:55;;;;;;;6.00;1.70;;;;;;;-145.18;100.00;46636.94;5072201;28;20032;-66
2023/07/04 01:32:22;;;;;;;5.00;1.53;;;;;;;-145.18;100.00;46660.41;5054079;28;20120;-66
2023/07/04 01:34:47;;;;;;;3.77;1.40;;;;;;;-145.18;100.00;46633.06;5071477;28;20523;-67
2023/07/04 01:37:13;;;;;;;2.57;1.50;;;;;;;-145.18;100.00;46636.94;5060303;28;20020;-67
2023/07/04 01:39:39;;;;;;;7.50;2.10;;;;;;;-145.18;100.00;46633.06;5087762;28;20032;-65
2023/07/04 01:42:05;;;;;;;6.33;1.67;;;;;;;-145.18;100.00;46660.41;5072147;28;20027;-66
2023/07/04 01:44:30;;;;;;;9.10;2.13;;;;;;;-145.18;100.00;46660.41;5071587;28;20036;-66
2023/07/04 01:46:55;;;;;;;5.17;1.60;;;;;;;-145.18;100.00;46660.41;5071773;28;20491;-66
2023/07/04 01:49:21;;;;;;;10.80;2.43;;;;;;;-145.18;100.00;46660.41;5077771;28;20028;-67
2023/07/04 01:51:47;;;;;;;4.50;1.60;;;;;;;-145.18;100.00;46660.41;5079850;28;20107;-66
2023/07/04 01:54:17;;;;;;;3.93;1.47;;;;;;;-145.18;100.00;46660.41;5072229;28;20032;-67
2023/07/04 01:56:45;;;;;;;5.67;1.70;;;;;;;-145.18;100.00;46660.41;5072196;28;20124;-66
2023/07/04 01:59:10;;;;;;;5.20;1.63;;;;;;;-145.18;100.00;46635.00;5071199;28;20024;-67
2023/07/04 02:01:35;;;;;;;4.97;1.63;;;;;;;-145.18;100.00;46660.41;5072286;28;20058;-66
2023/07/04 02:04:01;;;;;;;6.83;1.97;;;;;;;-145.18;100.00;46660.41;5072038;28;20104;-66
2023/07/04 02:06:26;;;;;;;5.27;1.97;;;;;;;-145.18;100.00;46660.41;5071749;28;20036;-66
2023/07/04 02:08:53;;;;;;;5.97;2.53;;;;;;;-145.18;100.00;46660.41;5071724;28;20592;-66
2023/07/04 02:11:19;;;;;;;3.17;1.23;;;;;;;-145.18;100.00;46633.06;5071641;28;20029;-66
2023/07/04 02:13:44;;;;;;;5.23;1.30;;;;;;;-145.18;100.00;46660.41;5071623;28;20549;-66
2023/07/04 02:16:10;;;;;;;11.47;2.07;;;;;;;-145.18;100.00;46660.41;5083740;28;20460;-66
2023/07/04 02:18:35;;;;;;;2.97;1.47;;;;;;;-145.18;100.00;46635.00;5072590;28;20115;-66
2023/07/04 02:21:00;;;;;;;8.03;1.80;;;;;;;-145.18;100.00;46660.41;5087197;28;20035;-66
2023/07/04 02:23:26;;;;;;;4.40;1.50;;;;;;;-145.18;100.00;46636.94;5091726;28;20078;-66
2023/07/04 02:25:54;;;;;;;8.27;1.30;;;;;;;-145.18;100.00;46635.00;5094982;28;20071;-66
2023/07/04 02:28:20;;;;;;;7.07;1.67;;;;;;;-145.18;100.00;46638.91;5081347;28;20069;-66
2023/07/04 02:30:55;;;;;;;5.50;1.47;;;;;;;-145.18;100.00;46636.94;5095139;28;20028;-66
2023/07/04 02:33:21;;;;;;;3.50;1.40;;;;;;;-145.18;100.00;46636.94;5078660;28;20028;-66
2023/07/04 02:35:47;;;;;;;7.60;2.00;;;;;;;-145.18;100.00;46638.91;5080891;28;20040;-66
2023/07/04 02:38:12;;;;;;;8.77;1.97;;;;;;;-145.18;100.00;46636.94;5095111;28;20042;-66
2023/07/04 02:40:43;;;;;;;6.33;1.60;;;;;;;-145.18;100.00;46635.00;5081081;28;20037;-67
2023/07/04 02:43:09;;;;;;;6.33;1.70;;;;;;;-145.18;100.00;46636.94;5085512;28;20035;-66
2023/07/04 02:45:34;;;;;;;7.53;2.10;;;;;;;-145.18;100.00;46638.91;5081989;28;20052;-66
2023/07/04 02:47:59;;;;;;;5.63;1.97;;;;;;;-145.18;100.00;46636.94;5094403;28;20074;-66
2023/07/04 02:50:25;;;;;;;8.97;2.00;;;;;;;-145.18;100.00;46660.41;5094048;28;20031;-66
2023/07/04 02:52:50;;;;;;;11.30;2.13;;;;;;;-145.18;100.00;46660.41;5091051;28;20177;-66
2023/07/04 02:55:17;;;;;;;10.30;2.53;;;;;;;-145.18;100.00;46660.41;5078296;28;20020;-65
2023/07/04 02:57:43;;;;;;;12.50;2.73;;;;;;;-145.18;100.00;46660.41;5064121;28;20089;-66
2023/07/04 03:00:09;;;;;;;16.70;3.30;;;;;;;-145.18;100.00;46660.41;5093623;28;20028;-66
2023/07/04 03:02:34;;;;;;;12.73;3.43;;;;;;;-145.18;100.00;46660.41;5093910;28;20020;-67
2023/07/04 03:05:00;;;;;;;9.67;2.87;;;;;;;-145.18;100.00;46660.41;5099623;28;20496;-66
2023/07/04 03:07:25;;;;;;;18.13;3.13;;;;;;;-145.18;100.00;46660.41;5105016;28;20036;-66
2023/07/04 03:09:50;;;;;;;15.23;3.63;;;;;;;-145.18;100.00;46633.06;5074528;28;20020;-66
2023/07/04 03:12:16;;;;;;;20.13;4.13;;;;;;;-145.18;100.00;46633.06;5068601;28;20039;-66
2023/07/04 03:14:41;;;;;;;15.60;4.13;;;;;;;-145.18;100.00;46660.41;5074084;28;20131;-67
2023/07/04 03:17:07;;;;;;;15.10;3.27;;;;;;;-145.18;100.00;46660.41;5081308;28;20386;-66
2023/07/04 03:19:32;;;;;;;17.10;3.87;;;;;;;-145.18;100.00;46660.41;5080735;28;20790;-66
2023/07/04 03:21:58;;;;;;;19.70;3.87;;;;;;;-145.18;100.00;46660.41;5074737;28;20433;-66
2023/07/04 03:24:23;;;;;;;10.87;3.37;;;;;;;-145.18;100.00;46660.41;5074078;28;20062;-66
2023/07/04 03:26:48;;;;;;;17.33;3.53;;;;;;;-145.18;100.00;46660.41;5056095;28;20028;-66
2023/07/04 03:29:14;;;;;;;16.87;3.13;;;;;;;-145.18;100.00;46660.41;5056551;28;20082;-61
2023/07/04 03:31:39;;;;;;;16.20;4.10;;;;;;;-145.18;100.00;46660.41;5073753;28;20407;-61
2023/07/04 03:34:05;;;;;;;17.43;3.27;;;;;;;-145.18;100.00;46660.41;5089593;28;20119;-61
2023/07/04 03:36:30;;;;;;;18.20;3.30;;;;;;;-145.18;100.00;46660.41;5074020;28;20034;-61
2023/07/04 03:38:55;;;;;;;14.70;4.30;;;;;;;-145.18;100.00;46660.41;5073535;28;20033;-61
2023/07/04 03:41:21;;;;;;;15.13;3.97;;;;;;;-145.18;100.00;46660.41;5074391;28;20016;-61
2023/07/04 03:43:46;;;;;;;20.03;4.27;;;;;;;-145.18;100.00;46631.09;5073456;28;20454;-61
2023/07/04 03:46:11;;;;;;;22.13;3.50;;;;;;;-145.18;100.00;46633.06;5074531;28;20035;-61
2023/07/04 03:48:37;;;;;;;16.23;3.03;;;;;;;-145.18;100.00;46660.41;5086944;28;20420;-61
2023/07/04 03:51:03;;;;;;;20.80;4.13;;;;;;;-145.18;100.00;46660.41;5074252;28;20020;-61
2023/07/04 03:53:28;;;;;;;10.73;3.27;;;;;;;-145.18;100.00;46660.41;5073924;28;20066;-61
2023/07/04 03:55:53;;;;;;;17.07;2.83;;;;;;;-145.18;100.00;46660.41;5071017;28;20107;-61
2023/07/04 03:58:19;;;;;;;16.20;3.77;;;;;;;-145.18;100.00;46660.41;5074453;28;20028;-61
2023/07/04 04:00:47;;;;;;;11.77;3.37;;;;;;;-145.18;100.00;46633.06;5019164;28;20036;-61
2023/07/04 04:03:13;;;;;;;13.93;2.40;;;;;;;-145.18;100.00;46660.41;5067766;28;20049;-61
2023/07/04 04:05:39;;;;;;;11.47;2.60;;;;;;;-145.18;100.00;46660.41;5074697;28;20107;-61
2023/07/04 04:08:04;;;;;;;12.20;2.63;;;;;;;-145.18;100.00;46631.09;5074408;28;20472;-61
2023/07/04 04:10:30;;;;;;;11.60;2.77;;;;;;;-145.18;100.00;46633.06;5057027;28;20043;-61
2023/07/04 04:12:55;;;;;;;7.93;2.10;;;;;;;-145.18;100.00;46631.09;5073018;28;20490;-61
2023/07/04 04:15:21;;;;;;;12.53;2.80;;;;;;;-145.18;100.00;46633.06;5072619;28;20025;-61
2023/07/04 04:17:47;;;;;;;19.57;2.70;;;;;;;-145.18;100.00;46633.06;5074755;28;20035;-61
2023/07/04 04:20:13;;;;;;;11.87;2.67;;;;;;;-145.18;100.00;46635.00;5077730;28;20032;-61
2023/07/04 04:22:43;;;;;;;19.87;3.80;;;;;;;-145.18;100.00;46636.94;5071786;28;20024;-62
2023/07/04 04:25:08;;;;;;;13.77;2.60;;;;;;;-145.18;100.00;46660.41;5073871;28;20052;-62
2023/07/04 04:27:35;;;;;;;11.67;2.10;;;;;;;-145.18;100.00;46636.94;5074395;28;20105;-62
2023/07/04 04:30:05;;;;;;;13.60;2.67;;;;;;;-145.18;100.00;46638.91;5091848;28;20016;-61
2023/07/04 04:32:30;;;;;;;12.07;2.07;;;;;;;-145.18;100.00;46640.88;5057941;28;20036;-61
2023/07/04 04:34:56;;;;;;;9.27;1.87;;;;;;;-145.18;100.00;46638.91;5072688;28;20032;-62
2023/07/04 04:37:23;;;;;;;8.50;2.10;;;;;;;-145.18;100.00;46642.81;5081615;28;20029;-61
2023/07/04 04:39:49;;;;;;;6.77;1.70;;;;;;;-145.18;100.00;46642.81;5046483;28;20055;-62
2023/07/04 04:42:14;;;;;;;11.80;1.70;;;;;;;-145.18;100.00;46640.88;5039482;28;20032;-61
2023/07/04 04:44:41;;;;;;;10.60;2.87;;;;;;;-145.18;100.00;46644.78;5073133;28;20056;-61
2023/07/04 04:47:07;;;;;;;12.10;1.70;;;;;;;-145.18;100.00;46646.72;5040310;28;20066;-61
2023/07/04 04:49:33;;;;;;;12.50;1.80;;;;;;;-145.18;100.00;46644.78;5075661;28;20056;-61
2023/07/04 04:51:58;;;;;;;11.13;1.77;;;;;;;-145.18;100.00;46644.78;5078999;28;20487;-61
2023/07/04 04:54:24;;;;;;;7.63;1.60;;;;;;;-145.18;100.00;46646.72;5073221;28;20047;-62
2023/07/04 04:56:50;;;;;;;12.70;2.03;;;;;;;-145.18;100.00;46652.59;5054103;28;20119;-61
2023/07/04 04:59:15;;;;;;;9.87;2.17;;;;;;;-145.18;100.00;46644.78;5084594;28;20089;-61
2023/07/04 05:01:41;;;;;;;9.43;2.17;;;;;;;-145.18;100.00;46650.63;5083581;28;20040;-61
2023/07/04 05:04:06;;;;;;;7.53;1.90;;;;;;;-145.18;100.00;46652.59;5084375;28;21318;-61
2023/07/04 05:06:32;;;;;;;9.53;2.33;;;;;;;-145.18;100.00;46650.63;5078837;28;20431;-61
2023/07/04 05:08:58;;;;;;;10.10;2.13;;;;;;;-145.18;100.00;46648.69;5081723;28;20043;-61
2023/07/04 05:11:23;;;;;;;6.70;1.87;;;;;;;-145.18;100.00;46652.59;5081435;28;20070;-61
2023/07/04 05:13:49;;;;;;;7.97;1.20;;;;;;;-145.18;100.00;46650.63;5093800;28;20055;-61
2023/07/04 05:16:20;;;;;;;14.77;2.10;;;;;;;-145.18;100.00;46648.69;5091857;28;20107;-61
2023/07/04 05:18:47;;;;;;;9.63;1.83;;;;;;;-145.18;100.00;46650.63;5064016;28;20448;-61
2023/07/04 05:21:19;;;;;;;9.97;1.87;;;;;;;-145.18;100.00;46650.63;5067646;28;20040;-61
2023/07/04 05:23:46;;;;;;;10.53;2.00;;;;;;;-145.18;100.00;46652.59;5080029;28;20257;-62
2023/07/04 05:26:18;;;;;;;15.37;2.00;;;;;;;-145.18;100.00;46656.50;5090697;28;20028;-61
2023/07/04 05:28:44;;;;;;;16.67;2.53;;;;;;;-145.18;100.00;46656.50;5071735;28;20089;-61
2023/07/04 05:31:12;;;;;;;12.47;2.63;;;;;;;-145.18;100.00;46654.53;5071718;28;20039;-61
2023/07/04 05:33:38;;;;;;;7.53;2.50;;;;;;;-145.18;100.00;46656.50;5072036;28;20715;-61
2023/07/04 05:36:08;;;;;;;17.70;2.73;;;;;;;-145.18;100.00;46654.53;5081606;28;20038;-61
2023/07/04 05:38:34;;;;;;;19.13;4.10;;;;;;;-145.18;100.00;46650.63;5079295;28;20034;-61
2023/07/04 05:41:00;;;;;;;10.47;2.07;;;;;;;-145.18;100.00;46650.63;5071941;28;20036;-61
2023/07/04 05:43:26;;;;;;;11.37;2.50;;;;;;;-145.18;100.00;46648.69;5071362;28;20040;-61
2023/07/04 05:45:53;;;;;;;24.73;3.17;;;;;;;-145.18;100.00;46652.59;5071924;28;20048;-61
2023/07/04 05:48:18;;;;;;;14.87;2.30;;;;;;;-145.18;100.00;46650.63;5079310;28;20040;-62
2023/07/04 05:50:55;;;;;;;13.37;2.27;;;;;;;-145.18;100.00;46656.50;5082024;28;20039;-61
2023/07/04 05:53:26;;;;;;;15.97;2.70;;;;;;;-145.18;100.00;46648.69;5082705;28;20134;-61
2023/07/04 05:55:52;;;;;;;12.43;3.37;;;;;;;-145.18;100.00;46648.69;5078661;28;20036;-61
2023/07/04 05:58:19;;;;;;;10.50;3.17;;;;;;;-145.18;100.00;46650.63;5083957;28;20129;-61
2023/07/04 06:00:45;;;;;;;18.57;3.00;;;;;;;-145.18;100.00;46654.53;5083416;28;20085;-62
2023/07/04 06:03:10;;;;;;;19.57;3.57;;;;;;;-145.18;100.00;46646.72;5062054;28;20029;-62
2023/07/04 06:05:41;;;;;;;13.73;2.87;;;;;;;-145.18;100.00;46650.63;5088194;28;20119;-61
2023/07/04 06:08:07;;;;;;;23.83;3.67;;;;;;;-145.18;100.00;46650.63;5091820;28;20036;-62
2023/07/04 06:10:33;;;;;;;19.13;3.67;;;;;;;-145.18;100.00;46648.69;5082893;28;20495;-62
2023/07/04 06:12:58;;;;;;;15.37;3.47;;;;;;;-145.18;100.00;46646.72;5082224;28;20419;-61
2023/07/04 06:15:23;;;;;;;18.00;3.40;;;;;;;-145.18;100.00;46652.59;5094530;28;20024;-61
2023/07/04 06:17:49;;;;;;;12.30;3.60;;;;;;;-145.18;100.00;46646.72;5094919;28;20464;-62
2023/07/04 06:20:14;;;;;;;14.07;3.30;;;;;;;-145.18;100.00;46652.59;5094401;28;20085;-62
2023/07/04 06:22:40;;;;;;;15.60;3.67;;;;;;;-145.18;100.00;46648.69;5092909;28;20123;-62
2023/07/04 06:25:06;;;;;;;12.77;2.63;;;;;;;-145.18;100.00;46652.59;5080097;28;20491;-62
2023/07/04 06:27:32;;;;;;;12.43;3.00;;;;;;;-145.18;100.00;46650.63;5082275;28;20090;-62
2023/07/04 06:29:57;;;;;;;12.90;2.77;;;;;;;-145.18;100.00;46654.53;5056482;28;20032;-62
2023/07/04 06:32:23;;;;;;;14.67;2.70;;;;;;;-145.18;100.00;46662.34;5075038;28;20029;-62
2023/07/04 06:34:48;;;;;;;12.60;1.80;;;;;;;-145.18;100.00;46660.41;5072784;28;20472;-62
2023/07/04 06:37:14;;;;;;;16.07;3.07;;;;;;;-145.18;100.00;46662.34;5078567;28;20033;-62
2023/07/04 06:39:39;;;;;;;14.00;3.53;;;;;;;-145.18;100.00;46666.25;5077191;28;20458;-62
2023/07/04 06:42:05;;;;;;;11.37;2.20;;;;;;;-145.18;100.00;46664.31;5060847;28;20123;-62
2023/07/04 06:44:30;;;;;;;17.03;3.00;;;;;;;-145.18;100.00;46668.22;5078498;28;20523;-62
2023/07/04 06:46:55;;;;;;;10.70;2.20;;;;;;;-145.18;100.00;46668.22;5081138;28;20032;-62
2023/07/04 06:49:21;;;;;;;9.47;2.77;;;;;;;-145.18;100.00;46668.22;5079577;28;20107;-62
2023/07/04 06:51:46;;;;;;;14.83;2.13;;;;;;;-145.18;100.00;46670.16;5078596;28;20058;-62
2023/07/04 06:54:12;;;;;;;6.90;1.80;;;;;;;-145.18;100.00;46672.13;5079386;28;20029;-62
2023/07/04 06:56:38;;;;;;;13.80;2.40;;;;;;;-145.18;100.00;46674.06;5095844;28;20074;-62
2023/07/04 06:59:03;;;;;;;10.37;3.17;;;;;;;-145.18;100.00;46668.22;5079036;28;20499;-62
2023/07/04 07:01:30;;;;;;;8.73;1.90;;;;;;;-145.18;100.00;46652.59;5078354;28;20056;-62
2023/07/04 07:03:57;;;;;;;12.13;2.10;;;;;;;-145.18;100.00;46615.47;5077903;28;20066;-62
2023/07/04 07:06:23;;;;;;;7.93;1.77;;;;;;;-145.18;100.00;46586.16;5094616;28;20043;-62
2023/07/04 07:08:49;;;;;;;11.40;1.90;;;;;;;-145.18;100.00;46595.94;5078585;28;20395;-62
2023/07/04 07:11:16;;;;;;;11.07;2.10;;;;;;;-145.18;100.00;46549.06;5080707;28;20037;-62
2023/07/04 07:13:42;;;;;;;6.80;1.50;;;;;;;-145.18;100.00;46543.19;5073076;28;20537;-62
2023/07/04 07:16:12;;;;;;;6.23;1.30;;;;;;;-145.18;100.00;46560.78;5076003;28;20567;-62
2023/07/04 07:18:39;;;;;;;6.70;1.70;;;;;;;-145.18;100.00;46554.91;5073918;28;20033;-62
2023/07/04 07:21:06;;;;;;;10.57;1.80;;;;;;;-145.18;100.00;46564.69;5057354;28;20090;-62
2023/07/04 07:23:34;;;;;;;8.30;1.90;;;;;;;-145.18;100.00;46560.78;5078298;28;20024;-63
2023/07/04 07:26:01;;;;;;;7.73;1.27;;;;;;;-145.18;100.00;46556.88;5078751;28;20024;-62
2023/07/04 07:28:28;;;;;;;8.63;2.10;;;;;;;-145.18;100.00;46566.63;5074203;28;20028;-63
2023/07/04 07:31:11;;;;;;;14.77;1.93;;;;;;;-145.18;100.00;46554.91;5077070;28;20051;-62
2023/07/04 07:33:39;;;;;;;10.33;1.63;;;;;;;-145.18;100.00;46549.06;5070073;28;20056;-62
2023/07/04 07:36:11;;;;;;;9.40;1.90;;;;;;;-145.18;100.00;46564.69;5081624;28;20039;-62
2023/07/04 07:38:37;;;;;;;11.97;2.27;;;;;;;-145.18;100.00;46562.72;5080323;28;20044;-62
2023/07/04 07:41:04;;;;;;;10.43;1.77;;;;;;;-145.18;100.00;46558.81;5080363;28;20032;-62
2023/07/04 07:43:30;;;;;;;12.03;2.10;;;;;;;-145.18;100.00;46562.72;5080691;28;20032;-62
2023/07/04 07:45:56;;;;;;;5.33;1.70;;;;;;;-145.18;100.00;46564.69;5095424;28;20049;-63
2023/07/04 07:48:21;;;;;;;12.17;1.50;;;;;;;-145.18;100.00;46562.72;5079097;28;20036;-62
2023/07/04 07:50:46;;;;;;;6.80;1.80;;;;;;;-145.18;100.00;46560.78;5058068;28;20499;-62
2023/07/04 07:53:13;;;;;;;8.30;1.87;;;;;;;-145.18;100.00;46558.81;5076700;28;20044;-62
2023/07/04 07:55:39;;;;;;;11.43;1.60;;;;;;;-145.18;100.00;46562.72;5077732;28;20559;-62
2023/07/04 07:58:05;;;;;;;7.90;1.77;;;;;;;-145.18;100.00;46564.69;5073209;28;20025;-62
2023/07/04 08:00:30;;;;;;;6.90;2.07;;;;;;;-145.18;100.00;46558.81;5055306;28;20400;-62
2023/07/04 08:02:56;;;;;;;11.63;1.77;;;;;;;-145.18;100.00;46554.91;5076348;28;20028;-62
2023/07/04 08:05:22;;;;;;;8.00;1.60;;;;;;;-145.18;100.00;46558.81;5088416;28;20400;-62
2023/07/04 08:07:47;;;;;;;11.83;1.80;;;;;;;-145.18;100.00;46554.91;5082225;28;20352;-63
2023/07/04 08:10:12;;;;;;;6.60;1.93;;;;;;;-145.18;100.00;46558.81;5088824;28;20484;-67
2023/07/04 08:12:38;;;;;;;11.00;2.37;;;;;;;-145.18;100.00;46562.72;5080315;28;20044;-67
2023/07/04 08:15:04;;;;;;;7.63;1.70;;;;;;;-145.18;100.00;46558.81;5072811;28;20115;-67
2023/07/04 08:17:29;;;;;;;6.47;1.50;;;;;;;-145.18;100.00;46560.78;5072024;28;20035;-67
2023/07/04 08:19:55;;;;;;;10.97;1.73;;;;;;;-145.18;100.00;46560.78;5076769;28;20115;-67
2023/07/04 08:22:20;;;;;;;9.27;1.77;;;;;;;-145.18;100.00;46568.59;5077628;28;20052;-67
2023/07/04 08:24:45;;;;;;;8.33;1.73;;;;;;;-145.18;100.00;46558.81;5071163;28;20032;-67
2023/07/04 08:27:11;;;;;;;7.20;1.63;;;;;;;-145.18;100.00;46560.78;5068191;28;20040;-67
2023/07/04 08:29:36;;;;;;;8.63;1.67;;;;;;;-145.18;100.00;46566.63;5077565;28;20494;-67
2023/07/04 08:32:02;;;;;;;9.47;1.90;;;;;;;-145.18;100.00;46552.97;5072978;28;20058;-67
2023/07/04 08:34:27;;;;;;;3.73;1.47;;;;;;;-145.18;100.00;46574.44;5081542;28;20086;-67
2023/07/04 08:36:53;;;;;;;11.17;2.13;;;;;;;-145.18;100.00;46552.97;5081434;28;20032;-67
2023/07/04 08:39:18;;;;;;;12.03;2.57;;;;;;;-145.18;100.00;46572.50;5065570;28;20036;-67
2023/07/04 08:41:56;;;;;;;8.80;1.83;;;;;;;-145.18;100.00;46556.88;5069215;28;20051;-67
2023/07/04 08:44:33;;;;;;;7.93;1.87;;;;;;;-145.18;100.00;46586.16;5074842;28;20049;-67
2023/07/04 08:46:58;;;;;;;8.97;2.30;;;;;;;-145.18;100.00;46580.31;5080534;28;20111;-67
2023/07/04 08:49:56;;;;;;;12.77;2.00;;;;;;;-145.18;100.00;46588.13;5074992;28;20531;-67
2023/07/04 08:52:34;;;;;;;9.13;1.83;;;;;;;-145.18;100.00;46593.97;5042448;28;20062;-67
2023/07/04 08:55:00;;;;;;;12.10;2.13;;;;;;;-145.18;100.00;46613.50;5075103;28;20024;-67
2023/07/04 08:57:50;;;;;;;12.00;2.00;;;;;;;-145.18;100.00;46586.16;5075958;28;20116;-67
2023/07/04 09:00:20;;;;;;;7.87;2.40;;;;;;;-145.18;100.00;46558.81;5082946;28;20050;-67
2023/07/04 09:03:27;;;;;;;4.33;1.50;;;;;;;-145.18;100.00;46566.63;5073803;28;20024;-67
2023/07/04 09:06:08;;;;;;;9.85;1.92;;;;;;;-145.18;100.00;46574.44;5063814;28;20041;-67
2023/07/04 09:08:55;;;;;;;6.67;2.13;;;;;;;-145.18;100.00;46902.63;5074939;28;20438;-67
2023/07/04 09:11:22;;;;;;;9.07;1.77;;;;;;;-145.18;100.00;46873.31;5074813;28;20040;-67
2023/07/04 09:13:56;;;;;;;7.57;1.83;;;;;;;-145.18;100.00;46918.25;5071850;28;20055;-67
2023/07/04 09:16:33;;;;;;;7.40;1.80;;;;;;;-145.18;100.00;47058.91;5085894;28;20032;-67
2023/07/04 09:19:07;;;;;;;8.33;1.83;;;;;;;-145.18;100.00;46957.31;5092056;28;20062;-66
2023/07/04 09:21:34;;;;;;;10.03;2.00;;;;;;;-145.18;100.00;46652.59;5087956;28;20542;-67
2023/07/04 09:24:03;;;;;;;7.20;2.00;;;;;;;-145.18;100.00;47068.66;5081468;28;20028;-67
2023/07/04 09:26:44;;;;;;;8.90;2.10;;;;;;;-145.18;100.00;47228.84;5075262;28;20039;-67
2023/07/04 09:29:12;;;;;;;8.73;3.17;;;;;;;-145.18;100.00;47234.72;5084052;28;20483;-67
2023/07/04 09:31:42;;;;;;;7.40;2.07;;;;;;;-145.18;100.00;47164.38;5090291;28;20043;-67
2023/07/04 09:34:32;;;;;;;7.23;2.27;;;;;;;-145.18;100.00;47174.16;5089802;28;20034;-65
2023/07/04 09:37:10;;;;;;;3.23;1.37;;;;;;;-145.18;100.00;47162.44;5066338;28;20040;-67
2023/07/04 09:39:44;;;;;;;6.47;1.80;;;;;;;-145.18;100.00;47209.31;5083305;28;20453;-64
2023/07/04 09:42:11;;;;;;;10.90;2.13;;;;;;;-145.18;100.00;47123.38;5084011;28;20024;-67
2023/07/04 09:44:38;;;;;;;8.03;1.97;;;;;;;-145.18;100.00;47105.78;5071211;28;20049;-67
2023/07/04 09:47:05;;;;;;;7.73;1.60;;;;;;;-145.18;100.00;47086.25;5083791;28;20024;-65
2023/07/04 09:49:33;;;;;;;6.20;1.50;;;;;;;-145.18;100.00;47115.56;5089986;28;20020;-67
2023/07/04 09:52:14;;;;;;;5.47;1.57;;;;;;;-145.18;100.00;47121.41;5079840;28;20567;-67
2023/07/04 09:54:42;;;;;;;10.57;1.90;;;;;;;-145.18;100.00;47094.06;5078294;28;20031;-65
2023/07/04 09:57:26;;;;;;;9.20;2.10;;;;;;;-145.18;100.00;47121.41;5090160;28;20020;-65
2023/07/04 09:59:53;;;;;;;7.23;1.67;;;;;;;-145.18;100.00;47099.91;5091156;28;20039;-67
2023/07/04 10:02:24;;;;;;;11.50;2.67;;;;;;;-145.18;100.00;47111.66;5090860;28;20081;-68
2023/07/04 10:04:50;;;;;;;9.33;2.37;;;;;;;-145.18;100.00;47103.81;5086561;28;20050;-67
2023/07/04 10:07:22;;;;;;;8.00;1.90;;;;;;;-145.18;100.00;47090.16;5077977;28;20020;-67
2023/07/04 10:10:01;;;;;;;5.83;1.53;;;;;;;-145.18;100.00;47131.19;5089787;28;20051;-67
2023/07/04 10:12:30;;;;;;;9.87;2.03;;;;;;;-145.18;100.00;47088.19;5063551;28;20099;-67
2023/07/04 10:14:58;;;;;;;6.67;1.80;;;;;;;-145.18;100.00;47080.38;5071571;28;20033;-67
2023/07/04 10:17:26;;;;;;;9.57;2.10;;;;;;;-145.18;100.00;47078.44;5071237;28;20511;-67
2023/07/04 10:19:55;;;;;;;4.70;2.10;;;;;;;-145.18;100.00;47097.97;5075581;28;20032;-67
2023/07/04 10:22:27;;;;;;;6.80;2.03;;;;;;;-145.18;100.00;47076.47;5091166;28;20383;-67
2023/07/04 10:24:53;;;;;;;7.13;1.90;;;;;;;-145.18;100.00;47125.31;5087111;28;20511;-67
2023/07/04 10:27:23;;;;;;;5.30;1.80;;;;;;;-145.18;100.00;47123.38;5071150;28;20028;-67
2023/07/04 10:29:54;;;;;;;5.87;2.10;;;;;;;-145.18;100.00;47066.72;5069469;28;20036;-63
2023/07/04 10:32:21;;;;;;;7.37;1.80;;;;;;;-145.18;100.00;47053.03;5071676;28;20035;-63
2023/07/04 10:34:48;;;;;;;8.70;1.43;;;;;;;-145.18;100.00;47060.84;5071438;28;20357;-63
2023/07/04 10:37:28;;;;;;;7.23;1.83;;;;;;;-145.18;100.00;47078.44;5071192;28;20384;-63
2023/07/04 10:40:03;;;;;;;3.60;1.47;;;;;;;-145.18;100.00;47094.06;5070854;28;20025;-63
2023/07/04 10:42:36;;;;;;;;;;;;;;;-145.18;100.00;47051.09;5073717;28;20032;-63
2023/07/04 10:45:04;;;;;;;8.87;1.67;;;;;;;-145.18;100.00;47068.66;5086069;28;20350;-64
2023/07/04 10:47:37;;;;;;;6.50;1.40;;;;;;;-145.18;100.00;47049.13;5074177;28;20040;-64
2023/07/04 10:50:16;;;;;;;7.00;1.50;;;;;;;-145.18;100.00;47105.78;5075157;28;20396;-63
2023/07/04 10:52:46;;;;;;;5.10;1.63;;;;;;;-145.18;100.00;47097.97;5076639;28;20373;-63
2023/07/04 10:55:32;;;;;;;7.07;1.80;;;;;;;-145.18;100.00;47105.78;5091295;28;20024;-63
2023/07/04 10:58:08;;;;;;;7.03;2.17;;;;;;;-145.18;100.00;47113.59;5078344;28;20032;-63
2023/07/04 11:00:57;;;;;;;5.83;1.70;;;;;;;-145.18;100.00;47115.56;5077915;28;20036;-63
2023/07/04 11:03:36;;;;;;;6.73;1.60;;;;;;;-145.18;100.00;47078.44;5082222;28;20115;-63
2023/07/04 11:06:08;;;;;;;8.93;1.37;;;;;;;-145.18;100.00;47101.88;5079429;28;20058;-63
2023/07/04 11:08:35;;;;;;;5.97;1.77;;;;;;;-145.18;100.00;47088.19;5078099;28;20395;-64
2023/07/04 11:11:08;;;;;;;6.00;1.67;;;;;;;-145.18;100.00;47096.00;5083089;28;20024;-64
2023/07/04 11:13:34;;;;;;;6.67;1.40;;;;;;;-145.18;100.00;47105.78;5082068;28;20039;-63